createdAt,value
2019-06-27T00:00:09.211Z,46.80
2019-06-27T00:05:12.900Z,46.71
2019-06-27T00:10:16.411Z,46.64
2019-06-27T00:15:19.863Z,46.46
2019-06-27T00:20:23.313Z,46.39
2019-06-27T00:25:26.758Z,46.31
2019-06-27T00:30:30.209Z,46.27
2019-06-27T00:35:33.667Z,46.24
2019-06-27T00:40:37.115Z,46.12
2019-06-27T00:45:40.563Z,46.09
2019-06-27T00:50:44.863Z,46.00
2019-06-27T00:55:48.310Z,45.88
2019-06-27T01:00:51.762Z,45.82
2019-06-27T01:05:55.213Z,45.69
2019-06-27T01:10:58.658Z,45.56
2019-06-27T01:16:02.121Z,45.46
2019-06-27T01:21:05.738Z,45.28
2019-06-27T01:26:09.186Z,45.20
2019-06-27T01:31:12.864Z,45.08
2019-06-27T01:36:16.329Z,44.92
2019-06-27T01:41:19.764Z,44.76
2019-06-27T01:46:23.213Z,44.76
2019-06-27T01:51:26.658Z,44.60
2019-06-27T01:56:30.109Z,44.47
2019-06-27T02:01:33.555Z,44.39
2019-06-27T02:06:37.005Z,44.35
2019-06-27T02:11:40.453Z,44.25
2019-06-27T02:16:43.896Z,44.20
2019-06-27T02:21:47.338Z,44.08
2019-06-27T02:26:50.783Z,43.99
2019-06-27T02:31:54.236Z,43.91
2019-06-27T02:36:57.685Z,43.85
2019-06-27T02:42:01.133Z,43.79
2019-06-27T02:47:04.617Z,43.71
2019-06-27T02:52:08.028Z,43.58
2019-06-27T02:57:11.479Z,43.41
2019-06-27T03:02:14.923Z,43.31
2019-06-27T03:07:18.368Z,43.24
2019-06-27T03:12:21.901Z,43.15
2019-06-27T03:17:25.336Z,43.09
2019-06-27T03:22:28.780Z,42.99
2019-06-27T03:27:32.371Z,42.93
2019-06-27T03:32:35.824Z,42.84
2019-06-27T03:37:39.275Z,42.81
2019-06-27T03:42:42.727Z,42.68
2019-06-27T03:47:46.558Z,42.50
2019-06-27T03:52:50.006Z,42.38
2019-06-27T03:57:53.455Z,42.23
2019-06-27T04:02:56.915Z,42.08
2019-06-27T04:08:00.367Z,42.08
2019-06-27T04:13:03.823Z,42.03
2019-06-27T04:18:07.278Z,41.80
2019-06-27T04:23:10.718Z,41.95
2019-06-27T04:28:14.235Z,41.93
2019-06-27T04:33:17.684Z,41.84
2019-06-27T04:38:21.133Z,41.70
2019-06-27T04:43:24.579Z,41.64
2019-06-27T04:48:28.029Z,41.44
2019-06-27T04:53:31.488Z,41.25
2019-06-27T04:58:34.922Z,41.34
2019-06-27T05:03:38.366Z,41.45
2019-06-27T05:08:41.818Z,41.63
2019-06-27T05:13:45.265Z,41.64
2019-06-27T05:18:48.876Z,41.70
2019-06-27T05:23:52.270Z,41.71
2019-06-27T05:28:55.722Z,41.66
2019-06-27T05:33:59.190Z,41.71
2019-06-27T05:39:02.779Z,41.73
2019-06-27T05:44:06.226Z,41.81
2019-06-27T05:49:09.676Z,41.88
2019-06-27T05:54:13.123Z,41.97
2019-06-27T05:59:16.566Z,42.00
2019-06-27T06:04:23.784Z,42.03
2019-06-27T06:09:25.187Z,42.07
2019-06-27T06:14:28.646Z,42.07
2019-06-27T06:19:32.068Z,42.13
2019-06-27T06:24:35.517Z,42.12
2019-06-27T06:29:38.953Z,42.14
2019-06-27T06:34:42.423Z,42.14
2019-06-27T06:39:45.872Z,38.94
2019-06-27T06:44:49.352Z,35.58
2019-06-27T06:49:52.784Z,34.29
2019-06-27T06:54:56.254Z,34.81
2019-06-27T06:59:59.702Z,34.33
2019-06-27T07:05:03.429Z,34.53
2019-06-27T07:10:07.974Z,34.78
2019-06-27T07:15:11.765Z,34.59
2019-06-27T07:20:15.359Z,34.26
2019-06-27T07:25:18.821Z,34.34
2019-06-27T07:30:22.269Z,34.79
2019-06-27T07:35:25.731Z,35.64
2019-06-27T07:40:29.185Z,34.68
2019-06-27T07:45:32.644Z,34.46
2019-06-27T07:50:36.094Z,34.50
2019-06-27T07:55:39.544Z,34.07
2019-06-27T08:00:43.008Z,34.83
2019-06-27T08:05:46.643Z,34.56
2019-06-27T08:10:50.093Z,33.79
2019-06-27T08:15:53.551Z,33.57
2019-06-27T08:20:57.018Z,34.19
2019-06-27T08:26:00.485Z,34.01
2019-06-27T08:31:04.019Z,33.94
2019-06-27T08:36:07.473Z,34.16
2019-06-27T08:41:13.994Z,33.40
2019-06-27T08:46:16.108Z,33.59
2019-06-27T08:51:19.575Z,32.67
2019-06-27T08:56:23.036Z,32.82
2019-06-27T09:01:26.670Z,32.58
2019-06-27T09:06:30.125Z,33.21
2019-06-27T09:11:37.817Z,33.78
2019-06-27T09:16:38.765Z,33.52
2019-06-27T09:21:42.218Z,33.59
2019-06-27T09:26:45.697Z,34.54
2019-06-27T09:31:49.139Z,34.70
2019-06-27T09:36:52.599Z,34.93
2019-06-27T09:41:56.057Z,34.20
2019-06-27T09:46:59.508Z,33.44
2019-06-27T09:52:02.962Z,32.78
2019-06-27T09:57:06.417Z,32.13
2019-06-27T10:02:09.968Z,31.79
2019-06-27T10:07:13.407Z,31.75
2019-06-27T10:12:16.867Z,31.79
2019-06-27T10:17:20.324Z,31.54
2019-06-27T10:22:23.780Z,31.78
2019-06-27T10:27:27.234Z,32.06
2019-06-27T10:32:30.690Z,31.95
2019-06-27T10:37:34.149Z,31.15
2019-06-27T10:42:37.651Z,31.99
2019-06-27T10:47:41.097Z,31.72
2019-06-27T10:52:44.605Z,32.17
2019-06-27T10:57:48.013Z,30.15
2019-06-27T11:02:51.482Z,29.50
2019-06-27T11:07:54.937Z,30.30
2019-06-27T11:12:59.645Z,29.71
2019-06-27T11:18:03.236Z,29.64
2019-06-27T11:23:06.709Z,30.21
2019-06-27T11:28:10.418Z,29.82
2019-06-27T11:33:13.903Z,29.11
2019-06-27T11:38:17.355Z,30.41
2019-06-27T11:43:20.815Z,29.51
2019-06-27T11:48:24.275Z,29.97
2019-06-27T11:53:27.748Z,31.10
2019-06-27T11:58:31.183Z,30.62
2019-06-27T12:03:48.426Z,30.13
2019-06-27T12:08:39.824Z,30.08
2019-06-27T12:13:43.272Z,30.66
2019-06-27T12:18:46.723Z,29.42
2019-06-27T12:23:50.176Z,29.93
2019-06-27T12:28:53.708Z,29.16
2019-06-27T12:34:06.903Z,28.17
2019-06-27T12:39:02.355Z,27.46
2019-06-27T12:44:05.817Z,27.91
2019-06-27T12:49:09.264Z,28.48
2019-06-27T12:54:12.718Z,28.54
2019-06-27T12:59:16.173Z,27.77
2019-06-27T13:04:23.918Z,28.81
2019-06-27T13:09:24.901Z,29.64
2019-06-27T13:14:28.447Z,29.32
2019-06-27T13:19:31.912Z,30.25
2019-06-27T13:24:35.353Z,31.01
2019-06-27T13:29:38.803Z,31.87
2019-06-27T13:34:42.327Z,32.70
2019-06-27T13:39:45.810Z,33.34
2019-06-27T13:44:49.397Z,33.88
2019-06-27T13:49:52.872Z,34.51
2019-06-27T13:54:56.292Z,34.74
2019-06-27T14:00:01.346Z,35.90
2019-06-27T14:05:07.724Z,36.04
2019-06-27T14:10:11.732Z,36.12
2019-06-27T14:15:15.497Z,36.29
2019-06-27T14:20:18.964Z,36.46
2019-06-27T14:25:22.410Z,36.93
2019-06-27T14:30:26.197Z,38.56
2019-06-27T14:35:29.645Z,39.19
2019-06-27T14:40:33.090Z,39.85
2019-06-27T14:45:36.540Z,40.21
2019-06-27T14:50:39.985Z,40.90
2019-06-27T14:55:43.435Z,41.17
2019-06-27T15:00:46.955Z,41.02
2019-06-27T15:05:50.398Z,41.34
2019-06-27T15:11:00.100Z,41.38
2019-06-27T15:16:11.971Z,41.53
2019-06-27T15:21:08.745Z,41.55
2019-06-27T15:26:12.189Z,41.50
2019-06-27T15:31:15.644Z,41.77
2019-06-27T15:36:19.080Z,41.71
2019-06-27T15:41:22.555Z,41.70
2019-06-27T15:46:26.175Z,41.34
2019-06-27T15:51:29.568Z,41.05
2019-06-27T15:56:33.031Z,40.95
2019-06-27T16:01:36.486Z,41.07
2019-06-27T16:06:39.967Z,41.36
2019-06-27T16:11:43.409Z,41.21
2019-06-27T16:16:46.855Z,40.92
2019-06-27T16:21:50.304Z,41.03
2019-06-27T16:26:53.747Z,40.93
2019-06-27T16:31:57.362Z,41.40
2019-06-27T16:37:00.822Z,41.80
2019-06-27T16:42:04.258Z,41.24
2019-06-27T16:47:07.702Z,40.89
2019-06-27T16:52:11.170Z,40.74
2019-06-27T16:57:14.672Z,40.66
2019-06-27T17:02:18.122Z,41.06
2019-06-27T17:07:21.565Z,40.72
2019-06-27T17:12:25.007Z,40.38
2019-06-27T17:17:28.460Z,40.30
2019-06-27T17:22:31.908Z,40.19
2019-06-27T17:27:35.522Z,40.09
2019-06-27T17:32:38.964Z,40.03
2019-06-27T17:37:42.408Z,39.88
2019-06-27T17:42:45.858Z,40.29
2019-06-27T17:47:49.309Z,38.96
2019-06-27T17:52:53.405Z,38.35
2019-06-27T17:57:56.882Z,38.12
2019-06-27T18:03:00.328Z,38.41
2019-06-27T18:08:03.792Z,38.31
2019-06-27T18:13:07.249Z,38.64
2019-06-27T18:18:10.719Z,37.60
2019-06-27T18:23:14.159Z,37.81
2019-06-27T18:28:17.600Z,36.74
2019-06-27T18:33:21.044Z,36.35
2019-06-27T18:38:24.484Z,36.16
2019-06-27T18:43:27.939Z,36.11
2019-06-27T18:48:31.780Z,35.81
2019-06-27T18:53:35.234Z,35.81
2019-06-27T18:58:38.683Z,35.36
2019-06-27T19:03:42.125Z,35.02
2019-06-27T19:08:45.577Z,34.67
2019-06-27T19:13:49.036Z,34.44
2019-06-27T19:18:54.133Z,34.51
2019-06-27T19:23:59.220Z,34.54
2019-06-27T19:29:14.259Z,34.51
2019-06-27T19:34:17.701Z,34.75
2019-06-27T19:39:21.136Z,34.47
2019-06-27T19:44:24.996Z,34.64
2019-06-27T19:49:28.460Z,34.60
2019-06-27T19:54:31.892Z,34.55
2019-06-27T19:59:35.400Z,34.50
2019-06-27T20:04:38.842Z,36.12
2019-06-27T20:09:42.818Z,34.97
2019-06-27T20:14:46.289Z,34.47
2019-06-27T20:19:49.745Z,34.06
2019-06-27T20:24:53.215Z,33.79
2019-06-27T20:29:57.748Z,33.63
2019-06-27T20:35:01.213Z,33.36
2019-06-27T20:40:07.783Z,33.29
2019-06-27T20:45:11.928Z,33.13
2019-06-27T20:50:15.400Z,33.23
2019-06-27T20:55:18.859Z,33.02
2019-06-27T21:00:22.663Z,32.86
2019-06-27T21:05:26.129Z,32.86
2019-06-27T21:10:29.591Z,32.95
2019-06-27T21:15:33.063Z,33.00
2019-06-27T21:20:36.505Z,33.02
2019-06-27T21:25:39.972Z,33.07
2019-06-27T21:30:44.767Z,33.01
2019-06-27T21:35:48.237Z,32.97
2019-06-27T21:40:51.689Z,33.03
2019-06-27T21:45:55.170Z,33.02
2019-06-27T21:50:58.595Z,33.03
2019-06-27T21:56:02.155Z,33.32
2019-06-27T22:01:05.588Z,33.22
2019-06-27T22:06:09.185Z,33.34
2019-06-27T22:11:12.650Z,33.42
2019-06-27T22:16:16.105Z,33.39
2019-06-27T22:21:19.557Z,33.46
2019-06-27T22:26:24.144Z,33.47
2019-06-27T22:31:27.597Z,33.46
2019-06-27T22:36:31.055Z,33.53
2019-06-27T22:41:52.780Z,33.46
2019-06-27T22:47:14.513Z,33.51
2019-06-27T22:52:22.408Z,33.41
2019-06-27T22:57:25.868Z,33.47
2019-06-27T23:02:29.334Z,33.54
2019-06-27T23:07:32.828Z,33.52
2019-06-27T23:12:36.275Z,33.59
2019-06-27T23:17:39.724Z,33.70
2019-06-27T23:22:43.177Z,33.58
2019-06-27T23:27:47.372Z,33.70
2019-06-27T23:32:50.993Z,33.68
2019-06-27T23:37:54.446Z,33.59
2019-06-27T23:42:57.916Z,33.60
2019-06-27T23:48:01.365Z,33.66
2019-06-27T23:53:04.826Z,33.68
2019-06-27T23:58:08.280Z,33.66
